Time;durP1;ratioP1;P1;durP2;ratioP2;P2;SDS_P1;SDS_P2;PMS_P1;PMS_P2;Temp;Humidity;BMP_temperature;BMP_pressure;BME280_temperature;BME280_humidity;BME280_pressure;Samples;Min_cycle;Max_cycle;Signal;HPM_P1;HPM_P2
2021/10/07 00:01:50;;;;;;;26.80;4.50;;;14.30;88.50;;;;;;5022802;28;20029;-59
2021/10/07 00:04:16;;;;;;;20.48;3.90;;;14.30;88.40;;;;;;5021952;28;20061;-60
2021/10/07 00:06:41;;;;;;;24.73;4.20;;;14.20;88.40;;;;;;5021081;28;20050;-60
2021/10/07 00:09:07;;;;;;;22.75;3.65;;;14.20;88.40;;;;;;5022288;28;20442;-60
2021/10/07 00:11:33;;;;;;;23.92;3.67;;;14.20;88.40;;;;;;5023320;28;20060;-59
2021/10/07 00:13:59;;;;;;;17.40;3.45;;;14.20;88.40;;;;;;5005686;28;20540;-60
2021/10/07 00:16:24;;;;;;;21.58;2.83;;;14.20;88.50;;;;;;5021588;28;20124;-60
2021/10/07 00:18:52;;;;;;;9.27;3.00;;;14.20;88.60;;;;;;5020095;28;20077;-60
2021/10/07 00:21:18;;;;;;;19.35;3.47;;;14.20;88.70;;;;;;5006296;28;20037;-60
2021/10/07 00:26:20;;;;;;;15.93;3.00;;;14.20;88.70;;;;;;5022322;28;20458;-60
2021/10/07 00:28:45;;;;;;;13.05;3.38;;;14.20;88.80;;;;;;5002886;28;20140;-59
2021/10/07 00:31:17;;;;;;;16.38;4.85;;;14.20;88.90;;;;;;5021764;28;20038;-60
2021/10/07 00:36:38;;;;;;;18.50;4.63;;;14.20;89.00;;;;;;5023328;28;20025;-59
2021/10/07 00:39:04;;;;;;;23.08;3.58;;;14.20;89.10;;;;;;5021972;28;20025;-59
2021/10/07 00:41:32;;;;;;;18.10;4.07;;;14.20;89.20;;;;;;5023464;28;20033;-60
2021/10/07 00:44:03;;;;;;;33.60;4.55;;;14.10;89.20;;;;;;5004828;28;20375;-60
2021/10/07 00:46:28;;;;;;;22.63;4.38;;;14.10;89.30;;;;;;5023616;28;20014;-59
2021/10/07 00:48:54;;;;;;;23.50;3.85;;;14.10;89.40;;;;;;5023450;28;20018;-60
2021/10/07 00:51:19;;;;;;;18.75;3.65;;;14.20;89.50;;;;;;5022469;28;20029;-59
2021/10/07 00:53:45;;;;;;;18.00;3.60;;;14.10;89.50;;;;;;5022814;28;20055;-60
2021/10/07 00:56:10;;;;;;;13.95;3.83;;;14.10;89.50;;;;;;5004512;28;20124;-59
2021/10/07 00:58:36;;;;;;;11.55;3.22;;;14.10;89.50;;;;;;5021011;28;20022;-60
2021/10/07 01:01:02;;;;;;;14.90;3.60;;;14.10;89.50;;;;;;5005167;28;20070;-59
2021/10/07 01:03:29;;;;;;;20.63;3.33;;;14.10;89.50;;;;;;5021205;28;20433;-60
2021/10/07 01:05:55;;;;;;;10.00;3.00;;;14.10;89.60;;;;;;5023132;28;20171;-59
2021/10/07 01:08:20;;;;;;;9.57;2.42;;;14.10;89.60;;;;;;5003497;28;20042;-60
2021/10/07 01:10:46;;;;;;;15.45;2.58;;;14.00;89.60;;;;;;5020304;28;20061;-60
2021/10/07 01:13:13;;;;;;;14.90;2.42;;;14.10;89.60;;;;;;5023835;28;20030;-60
2021/10/07 01:15:41;;;;;;;16.48;2.47;;;14.00;89.60;;;;;;5020746;28;20420;-59
2021/10/07 01:18:06;;;;;;;11.75;2.97;;;14.00;89.60;;;;;;5021532;28;20018;-60
2021/10/07 01:20:32;;;;;;;7.75;2.22;;;14.00;89.70;;;;;;5021134;28;20024;-61
2021/10/07 01:22:57;;;;;;;10.18;2.35;;;14.00;89.70;;;;;;5019142;28;20049;-60
2021/10/07 01:25:23;;;;;;;8.02;2.33;;;14.00;89.70;;;;;;5022726;28;20038;-60
2021/10/07 01:27:54;;;;;;;8.30;2.30;;;14.00;89.80;;;;;;5020370;28;20489;-59
2021/10/07 01:30:19;;;;;;;7.90;2.10;;;14.00;89.90;;;;;;5020168;28;20033;-60
2021/10/07 01:32:45;;;;;;;11.20;1.55;;;14.00;90.00;;;;;;5022324;28;20032;-59
2021/10/07 01:35:10;;;;;;;8.02;2.22;;;14.00;89.90;;;;;;5020483;28;20527;-59
2021/10/07 01:37:36;;;;;;;5.88;1.80;;;14.00;90.00;;;;;;5022044;28;20111;-60
2021/10/07 01:40:03;;;;;;;6.25;2.05;;;13.90;90.00;;;;;;5004411;28;20065;-59
2021/10/07 01:42:29;;;;;;;7.20;1.65;;;13.90;90.00;;;;;;5021263;28;20116;-59
2021/10/07 01:44:54;;;;;;;15.00;1.92;;;13.90;90.00;;;;;;5022110;28;20579;-59
2021/10/07 01:47:20;;;;;;;5.63;1.58;;;13.90;90.00;;;;;;5020953;28;20400;-60
2021/10/07 01:49:45;;;;;;;8.55;2.03;;;13.90;90.00;;;;;;5021716;28;20696;-60
2021/10/07 01:52:11;;;;;;;6.38;2.00;;;14.00;90.00;;;;;;5023729;28;20056;-60
2021/10/07 01:54:36;;;;;;;7.15;3.03;;;13.70;90.00;;;;;;5025936;28;20033;-60
2021/10/07 01:57:03;;;;;;;8.23;3.40;;;13.90;90.00;;;;;;5023303;28;20030;-60
2021/10/07 01:59:28;;;;;;;8.75;3.67;;;13.90;90.00;;;;;;5021592;28;20087;-60
2021/10/07 02:01:54;;;;;;;5.82;2.55;;;13.90;90.10;;;;;;5022907;28;20678;-59
2021/10/07 02:04:19;;;;;;;5.15;2.50;;;13.90;90.40;;;;;;5024751;28;20083;-60
2021/10/07 02:06:45;;;;;;;6.18;2.53;;;13.90;90.10;;;;;;5025641;28;20033;-60
2021/10/07 02:09:10;;;;;;;7.53;2.65;;;13.90;90.10;;;;;;5024200;28;20101;-60
2021/10/07 02:11:36;;;;;;;6.78;2.67;;;13.90;90.10;;;;;;5025473;28;20069;-60
2021/10/07 02:14:02;;;;;;;5.30;2.28;;;13.90;90.10;;;;;;5022674;28;20029;-60
2021/10/07 02:16:32;;;;;;;3.63;2.10;;;13.90;90.10;;;;;;5021582;28;20033;-60
2021/10/07 02:18:57;;;;;;;3.88;1.52;;;13.90;90.10;;;;;;5024419;28;20075;-60
2021/10/07 02:21:23;;;;;;;8.65;1.95;;;13.90;90.10;;;;;;5023842;28;20034;-60
2021/10/07 02:23:48;;;;;;;5.20;1.77;;;13.90;90.10;;;;;;5026276;28;20384;-60
2021/10/07 02:26:14;;;;;;;5.80;2.00;;;13.90;90.10;;;;;;4988813;28;20460;-61
2021/10/07 02:28:39;;;;;;;4.18;1.58;;;13.80;90.10;;;;;;5023359;28;20516;-59
2021/10/07 02:31:05;;;;;;;3.53;1.60;;;13.80;90.20;;;;;;5026039;28;20429;-60
2021/10/07 02:33:30;;;;;;;5.80;1.65;;;13.80;90.20;;;;;;5024557;28;20036;-60
2021/10/07 02:35:56;;;;;;;4.28;1.65;;;13.80;90.20;;;;;;5021460;28;20057;-60
2021/10/07 02:38:21;;;;;;;5.57;1.60;;;13.80;90.20;;;;;;5024302;28;20022;-60
2021/10/07 02:40:47;;;;;;;5.47;1.52;;;13.80;90.30;;;;;;5022615;28;20037;-60
2021/10/07 02:43:12;;;;;;;9.88;1.90;;;13.80;90.30;;;;;;5025713;28;20614;-60
2021/10/07 02:45:38;;;;;;;7.22;2.42;;;13.80;90.30;;;;;;5023850;28;20113;-60
2021/10/07 02:48:04;;;;;;;14.52;3.25;;;13.80;90.30;;;;;;5023216;28;20052;-60
2021/10/07 02:50:29;;;;;;;20.15;3.00;;;13.80;90.30;;;;;;5024450;28;20022;-60
2021/10/07 02:52:55;;;;;;;17.42;3.53;;;13.80;90.30;;;;;;5024531;28;20072;-59
2021/10/07 02:55:21;;;;;;;22.60;3.42;;;13.80;90.30;;;;;;5020953;28;20231;-61
2021/10/07 02:57:47;;;;;;;21.73;2.88;;;13.80;90.40;;;;;;5022378;28;20326;-59
2021/10/07 03:00:13;;;;;;;16.42;2.67;;;13.80;90.30;;;;;;5023583;28;20030;-59
2021/10/07 03:02:39;;;;;;;11.73;2.35;;;13.80;90.40;;;;;;5023653;28;20025;-60
2021/10/07 03:05:05;;;;;;;17.15;2.40;;;13.80;90.40;;;;;;5023175;28;20026;-59
2021/10/07 03:07:30;;;;;;;20.45;3.25;;;13.70;90.40;;;;;;5021905;28;20056;-59
2021/10/07 03:09:56;;;;;;;16.02;2.03;;;13.80;90.50;;;;;;5023616;28;20029;-59
2021/10/07 03:12:22;;;;;;;16.30;2.60;;;13.80;90.50;;;;;;5022367;28;20041;-60
2021/10/07 03:14:47;;;;;;;17.77;2.13;;;13.80;90.50;;;;;;5023335;28;20034;-60
2021/10/07 03:17:13;;;;;;;12.85;2.35;;;13.70;90.50;;;;;;5021333;28;20025;-59
2021/10/07 03:19:38;;;;;;;15.40;2.80;;;13.70;90.50;;;;;;5023176;28;20129;-60
2021/10/07 03:22:04;;;;;;;9.30;1.63;;;13.70;90.50;;;;;;5024716;28;20109;-59
2021/10/07 03:24:30;;;;;;;8.55;1.98;;;13.70;90.50;;;;;;5024421;28;20094;-59
2021/10/07 03:26:56;;;;;;;11.98;1.80;;;13.70;90.60;;;;;;5023009;28;20041;-59
2021/10/07 03:29:21;;;;;;;12.15;2.30;;;13.70;90.60;;;;;;5023863;28;20029;-59
2021/10/07 03:31:47;;;;;;;7.63;1.65;;;13.70;90.60;;;;;;5022324;28;20036;-60
2021/10/07 03:34:13;;;;;;;8.40;1.83;;;13.60;90.60;;;;;;5021845;28;20528;-60
2021/10/07 03:36:38;;;;;;;15.57;1.88;;;13.60;90.60;;;;;;5023323;28;20618;-61
2021/10/07 03:39:04;;;;;;;11.32;1.55;;;13.60;90.60;;;;;;5019145;28;20025;-60
2021/10/07 03:41:29;;;;;;;9.15;1.67;;;13.60;90.60;;;;;;5024130;28;20036;-59
2021/10/07 03:43:55;;;;;;;6.25;1.30;;;13.60;90.60;;;;;;5022294;28;20675;-60
2021/10/07 03:46:21;;;;;;;8.27;1.50;;;13.60;90.70;;;;;;5021524;28;20115;-60
2021/10/07 03:48:46;;;;;;;10.45;1.50;;;13.60;90.70;;;;;;5021707;28;20147;-60
2021/10/07 03:51:12;;;;;;;9.35;1.83;;;13.60;90.70;;;;;;5023250;28;20043;-60
2021/10/07 03:53:38;;;;;;;5.25;1.50;;;13.50;90.70;;;;;;5023875;28;20824;-59
2021/10/07 03:56:03;;;;;;;5.72;1.58;;;13.60;90.80;;;;;;5005841;28;20030;-59
2021/10/07 03:58:29;;;;;;;4.60;1.40;;;13.50;90.70;;;;;;5021564;28;20029;-60
2021/10/07 04:00:54;;;;;;;8.90;1.30;;;13.50;90.70;;;;;;5006372;28;20021;-60
2021/10/07 04:03:20;;;;;;;7.22;1.33;;;13.50;90.70;;;;;;5021038;28;20116;-59
2021/10/07 04:05:47;;;;;;;5.40;1.35;;;13.50;90.70;;;;;;5021593;28;20126;-60
2021/10/07 04:08:13;;;;;;;6.90;1.27;;;13.50;90.70;;;;;;5022293;28;20028;-59
2021/10/07 04:10:38;;;;;;;4.97;1.08;;;13.50;90.80;;;;;;5021881;28;20373;-59
2021/10/07 04:13:04;;;;;;;8.63;1.40;;;13.50;90.80;;;;;;5022159;28;20041;-60
2021/10/07 04:15:30;;;;;;;4.13;1.20;;;13.50;90.80;;;;;;5005356;28;20059;-60
2021/10/07 04:17:55;;;;;;;4.57;1.10;;;13.50;90.80;;;;;;5023182;28;20566;-60
2021/10/07 04:20:21;;;;;;;2.60;1.10;;;13.50;90.90;;;;;;5023805;28;20041;-60
2021/10/07 04:22:46;;;;;;;7.90;1.65;;;13.40;90.80;;;;;;5019319;28;20021;-59
2021/10/07 04:25:12;;;;;;;5.10;1.17;;;13.50;90.90;;;;;;5022315;28;20083;-60
2021/10/07 04:27:38;;;;;;;4.75;1.33;;;13.40;90.80;;;;;;5022895;28;20501;-59
2021/10/07 04:30:05;;;;;;;8.43;1.50;;;13.50;90.90;;;;;;5022485;28;20060;-60
2021/10/07 04:32:30;;;;;;;4.90;1.38;;;13.40;90.90;;;;;;5020532;28;20025;-60
2021/10/07 04:34:56;;;;;;;2.47;0.98;;;13.40;90.90;;;;;;5003416;28;20045;-59
2021/10/07 04:37:21;;;;;;;3.22;0.73;;;13.40;90.90;;;;;;5021965;28;20032;-59
2021/10/07 04:39:47;;;;;;;5.03;1.10;;;13.40;90.90;;;;;;5018532;28;20485;-60
2021/10/07 04:42:12;;;;;;;4.55;1.17;;;13.40;90.90;;;;;;5021772;28;20449;-59
2021/10/07 04:44:38;;;;;;;2.95;0.90;;;13.40;90.90;;;;;;5005827;28;20063;-60
2021/10/07 04:47:03;;;;;;;6.57;1.27;;;13.30;90.90;;;;;;5022150;28;20040;-60
2021/10/07 04:49:29;;;;;;;2.10;0.90;;;13.30;90.90;;;;;;5019046;28;20039;-59
2021/10/07 04:51:55;;;;;;;3.60;0.77;;;13.30;91.00;;;;;;5022122;28;20037;-60
2021/10/07 04:54:20;;;;;;;1.80;0.63;;;13.40;91.00;;;;;;4988833;28;20025;-60
2021/10/07 04:56:46;;;;;;;2.08;0.82;;;13.30;90.90;;;;;;5023633;28;20033;-59
2021/10/07 04:59:11;;;;;;;2.67;0.93;;;13.40;90.90;;;;;;4981845;28;20053;-60
2021/10/07 05:01:37;;;;;;;4.43;0.88;;;13.30;90.90;;;;;;5019030;28;20035;-60
2021/10/07 05:04:03;;;;;;;1.77;0.80;;;13.30;90.90;;;;;;5016740;28;20416;-60
2021/10/07 05:06:29;;;;;;;2.33;0.82;;;13.30;91.00;;;;;;5003628;28;20377;-60
2021/10/07 05:08:55;;;;;;;1.20;0.90;;;13.30;91.00;;;;;;5018364;28;20095;-60
2021/10/07 05:11:21;;;;;;;1.50;0.75;;;13.30;91.00;;;;;;5018343;28;20505;-59
2021/10/07 05:13:46;;;;;;;1.60;0.98;;;13.30;91.00;;;;;;5020840;28;20096;-60
2021/10/07 05:16:12;;;;;;;1.98;0.95;;;13.30;91.10;;;;;;5019672;28;20030;-61
2021/10/07 05:18:37;;;;;;;4.57;1.48;;;13.30;91.10;;;;;;5018948;28;20049;-59
2021/10/07 05:21:03;;;;;;;2.15;0.88;;;13.30;91.10;;;;;;5002653;28;20022;-60
2021/10/07 05:23:29;;;;;;;2.13;1.05;;;13.20;91.10;;;;;;5003936;28;20029;-60
2021/10/07 05:25:55;;;;;;;2.22;0.80;;;13.30;91.10;;;;;;5023796;28;20068;-60
2021/10/07 05:28:20;;;;;;;2.78;1.00;;;13.20;91.10;;;;;;5015944;28;20293;-60
2021/10/07 05:30:46;;;;;;;2.30;1.05;;;13.20;91.10;;;;;;5020920;28;20054;-60
2021/10/07 05:33:12;;;;;;;2.17;0.88;;;13.20;91.10;;;;;;5025620;28;20509;-60
2021/10/07 05:35:37;;;;;;;1.63;0.73;;;13.20;91.20;;;;;;5023223;28;20337;-60
2021/10/07 05:38:03;;;;;;;2.10;0.60;;;13.20;91.20;;;;;;5025230;28;20469;-60
2021/10/07 05:40:28;;;;;;;3.22;0.82;;;13.20;91.20;;;;;;5026082;28;20430;-59
2021/10/07 05:42:54;;;;;;;6.53;1.30;;;13.20;91.10;;;;;;5006284;28;20033;-60
2021/10/07 05:45:19;;;;;;;2.45;0.80;;;13.20;91.20;;;;;;5003289;28;20041;-60
2021/10/07 05:47:45;;;;;;;1.92;0.85;;;13.20;91.20;;;;;;5022060;28;20033;-60
2021/10/07 05:50:11;;;;;;;1.90;0.57;;;13.20;91.20;;;;;;5024997;28;20444;-60
2021/10/07 05:52:36;;;;;;;1.88;0.75;;;13.20;91.10;;;;;;5007173;28;20448;-59
2021/10/07 05:55:03;;;;;;;5.50;1.10;;;13.20;91.10;;;;;;5022622;28;20060;-60
2021/10/07 05:57:28;;;;;;;2.75;0.77;;;13.20;91.20;;;;;;5023861;28;20348;-60
2021/10/07 05:59:54;;;;;;;1.85;0.95;;;13.20;91.10;;;;;;5022095;28;20036;-60
2021/10/07 06:02:19;;;;;;;2.08;0.70;;;13.20;91.20;;;;;;5007739;28;20048;-60
2021/10/07 06:04:45;;;;;;;1.92;0.88;;;13.20;91.20;;;;;;5023508;28;20393;-60
2021/10/07 06:07:11;;;;;;;8.18;1.33;;;13.20;91.20;;;;;;5023451;28;20504;-60
2021/10/07 06:09:36;;;;;;;27.83;3.88;;;13.10;91.20;;;;;;5020778;28;20044;-60
2021/10/07 06:12:02;;;;;;;18.75;3.22;;;13.10;91.20;;;;;;5020800;28;20605;-60
2021/10/07 06:14:27;;;;;;;22.23;2.65;;;13.20;91.20;;;;;;5021423;28;20120;-59
2021/10/07 06:16:53;;;;;;;61.75;5.15;;;13.20;91.20;;;;;;5007209;28;20094;-60
2021/10/07 06:19:21;;;;;;;64.18;4.85;;;13.10;91.20;;;;;;5005193;28;20235;-61
2021/10/07 06:21:46;;;;;;;32.65;3.15;;;13.20;91.20;;;;;;5021820;28;20021;-60
2021/10/07 06:24:12;;;;;;;42.60;5.50;;;13.20;91.20;;;;;;5018602;28;20048;-60
2021/10/07 06:26:38;;;;;;;34.85;4.03;;;13.20;91.10;;;;;;5020166;28;20046;-60
2021/10/07 06:29:04;;;;;;;22.60;3.58;;;13.20;91.10;;;;;;5021779;28;20041;-60
2021/10/07 06:31:29;;;;;;;33.78;3.42;;;13.20;91.20;;;;;;5024268;28;20196;-59
2021/10/07 06:33:55;;;;;;;23.02;3.25;;;13.20;91.20;;;;;;5022011;28;20182;-60
2021/10/07 06:36:20;;;;;;;36.97;3.42;;;13.20;91.20;;;;;;5019046;28;20041;-60
2021/10/07 06:38:46;;;;;;;28.27;3.55;;;13.20;91.20;;;;;;5019173;28;20053;-59
2021/10/07 06:41:12;;;;;;;30.52;3.13;;;13.20;91.20;;;;;;5019564;28;20113;-60
2021/10/07 06:43:37;;;;;;;19.67;3.25;;;13.20;91.20;;;;;;5022484;28;20078;-60
2021/10/07 06:46:03;;;;;;;90.50;7.50;;;13.20;91.20;;;;;;5023699;28;20067;-60
2021/10/07 06:48:28;;;;;;;44.85;4.88;;;13.20;91.20;;;;;;5023243;28;20068;-59
2021/10/07 06:50:54;;;;;;;67.07;4.97;;;13.20;91.20;;;;;;5022780;28;20025;-60
2021/10/07 06:53:19;;;;;;;53.42;5.13;;;13.20;91.30;;;;;;5017287;28;20029;-59
2021/10/07 06:55:45;;;;;;;47.22;4.45;;;13.20;91.30;;;;;;5015626;28;20033;-60
2021/10/07 06:58:11;;;;;;;41.08;4.28;;;13.20;91.30;;;;;;5018765;28;20025;-60
2021/10/07 07:00:37;;;;;;;39.53;4.35;;;13.20;91.40;;;;;;5019701;28;20203;-60
2021/10/07 07:03:04;;;;;;;35.25;4.38;;;13.20;91.40;;;;;;5017735;28;20038;-60
2021/10/07 07:05:30;;;;;;;47.75;5.93;;;13.20;91.40;;;;;;5003272;28;20152;-59
2021/10/07 07:07:56;;;;;;;52.05;5.28;;;13.20;91.40;;;;;;5018562;28;20033;-60
2021/10/07 07:10:21;;;;;;;48.10;4.65;;;13.30;91.50;;;;;;5020688;28;20049;-60
2021/10/07 07:12:48;;;;;;;35.10;4.78;;;13.20;91.40;;;;;;5018673;28;20034;-60
2021/10/07 07:15:14;;;;;;;34.33;4.25;;;13.20;91.40;;;;;;5021249;28;20622;-59
2021/10/07 07:17:39;;;;;;;45.58;5.47;;;13.30;91.40;;;;;;5019644;28;20212;-60
2021/10/07 07:20:06;;;;;;;42.17;4.88;;;13.30;91.40;;;;;;5020263;28;20037;-59
2021/10/07 07:22:31;;;;;;;42.88;6.38;;;13.30;91.40;;;;;;5021221;28;20077;-60
2021/10/07 07:24:57;;;;;;;47.38;5.45;;;13.30;91.40;;;;;;5006208;28;20026;-59
2021/10/07 07:27:23;;;;;;;28.40;5.65;;;13.30;91.50;;;;;;5020795;28;20454;-59
2021/10/07 07:29:48;;;;;;;48.53;5.55;;;13.30;91.50;;;;;;5003789;28;20037;-59
2021/10/07 07:32:14;;;;;;;39.65;5.18;;;13.30;91.50;;;;;;5020441;28;20049;-59
2021/10/07 07:34:40;;;;;;;42.55;5.28;;;13.30;91.50;;;;;;5022214;28;20046;-60
2021/10/07 07:37:05;;;;;;;34.65;5.38;;;13.40;91.50;;;;;;5017802;28;20029;-59
2021/10/07 07:39:31;;;;;;;42.97;5.35;;;13.30;91.50;;;;;;5017941;28;20029;-59
2021/10/07 07:41:56;;;;;;;31.75;4.80;;;13.40;91.50;;;;;;5019741;28;20068;-59
2021/10/07 07:44:22;;;;;;;30.10;4.65;;;13.30;91.40;;;;;;5020574;28;20060;-60
2021/10/07 07:46:47;;;;;;;34.65;5.65;;;13.40;91.30;;;;;;5019184;28;20109;-60
2021/10/07 07:49:13;;;;;;;26.17;4.80;;;13.40;91.30;;;;;;5017832;28;20083;-59
2021/10/07 07:51:38;;;;;;;49.65;5.78;;;13.40;91.30;;;;;;5017328;28;20549;-59
2021/10/07 07:54:04;;;;;;;38.90;5.50;;;13.40;91.20;;;;;;5018859;28;20049;-60
2021/10/07 07:56:30;;;;;;;42.78;4.28;;;13.40;91.10;;;;;;5018232;28;20368;-59
2021/10/07 07:58:55;;;;;;;42.13;5.65;;;13.50;91.10;;;;;;5019809;28;20156;-60
2021/10/07 08:01:21;;;;;;;46.25;5.65;;;13.50;91.00;;;;;;5016996;28;20798;-60
2021/10/07 08:03:47;;;;;;;38.38;4.78;;;13.50;91.00;;;;;;5015269;28;20220;-60
2021/10/07 08:06:13;;;;;;;44.80;5.30;;;13.50;91.00;;;;;;5018186;28;20588;-60
2021/10/07 08:08:38;;;;;;;49.28;6.13;;;13.50;90.90;;;;;;5017967;28;20095;-60
2021/10/07 08:11:04;;;;;;;65.28;6.25;;;13.50;90.90;;;;;;5018172;28;20180;-59
2021/10/07 08:13:29;;;;;;;36.25;5.35;;;13.60;90.90;;;;;;5003191;28;20552;-60
2021/10/07 08:15:55;;;;;;;53.90;6.47;;;13.60;90.90;;;;;;5017784;28;20040;-60
2021/10/07 08:18:20;;;;;;;58.88;7.18;;;13.60;90.90;;;;;;5017426;28;20033;-60
2021/10/07 08:20:46;;;;;;;40.70;6.70;;;13.60;90.90;;;;;;5017314;28;20132;-59
2021/10/07 08:23:13;;;;;;;67.18;6.70;;;13.70;90.90;;;;;;5017502;28;20108;-60
2021/10/07 08:25:39;;;;;;;54.28;6.10;;;13.70;91.00;;;;;;5015143;28;20109;-59
2021/10/07 08:28:06;;;;;;;47.78;6.68;;;13.70;90.90;;;;;;5019866;28;20102;-62
2021/10/07 08:30:32;;;;;;;79.53;8.77;;;13.70;90.90;;;;;;5018392;28;20202;-62
2021/10/07 08:32:57;;;;;;;61.95;7.05;;;13.80;90.90;;;;;;5015246;28;20153;-59
2021/10/07 08:35:23;;;;;;;65.80;7.53;;;13.70;90.80;;;;;;5014004;28;20123;-59
2021/10/07 08:37:48;;;;;;;45.70;5.70;;;13.80;90.80;;;;;;5013103;28;20167;-60
2021/10/07 08:40:15;;;;;;;55.10;6.80;;;13.80;90.80;;;;;;5012930;28;20038;-59
2021/10/07 08:42:41;;;;;;;66.13;6.22;;;13.80;91.10;;;;;;5018869;28;20025;-59
2021/10/07 08:45:08;;;;;;;64.22;8.05;;;13.80;90.90;;;;;;5001835;28;20124;-60
2021/10/07 08:47:37;;;;;;;67.80;7.38;;;13.90;90.90;;;;;;4998492;28;20038;-59
2021/10/07 08:50:03;;;;;;;40.97;6.10;;;13.90;90.80;;;;;;5015916;28;20033;-59
2021/10/07 08:52:29;;;;;;;60.78;7.35;;;13.90;90.70;;;;;;5011902;28;20037;-61
2021/10/07 08:54:54;;;;;;;83.35;8.65;;;14.00;90.80;;;;;;5018061;28;20041;-60
2021/10/07 08:57:20;;;;;;;77.50;7.32;;;14.00;90.80;;;;;;5015361;28;20041;-60
2021/10/07 08:59:45;;;;;;;50.33;7.10;;;14.00;90.70;;;;;;5015393;28;20048;-59
2021/10/07 09:02:26;;;;;;;72.18;8.15;;;14.00;90.60;;;;;;4997453;28;20517;-60
2021/10/07 09:04:52;;;;;;;45.35;7.45;;;14.00;90.40;;;;;;4998624;28;20156;-59
2021/10/07 09:07:18;;;;;;;58.08;8.00;;;14.10;90.40;;;;;;5014906;28;20133;-61
2021/10/07 09:09:43;;;;;;;46.92;6.97;;;14.10;90.50;;;;;;5018890;28;20362;-60
2021/10/07 09:12:13;;;;;;;78.10;8.18;;;14.10;90.60;;;;;;5002283;28;20056;-60
2021/10/07 09:14:41;;;;;;;53.28;8.35;;;14.20;90.40;;;;;;5015709;28;20040;-59
2021/10/07 09:17:07;;;;;;;69.47;8.82;;;14.20;90.60;;;;;;5010418;28;20055;-59
2021/10/07 09:19:36;;;;;;;71.72;7.50;;;14.20;90.50;;;;;;5001550;28;20136;-60
2021/10/07 09:22:24;;;;;;;66.80;8.45;;;14.30;90.50;;;;;;5020277;28;20045;-59
2021/10/07 09:24:51;;;;;;;65.57;10.27;;;14.30;90.40;;;;;;5012770;28;20148;-60
2021/10/07 09:27:33;;;;;;;49.13;7.05;;;14.40;90.40;;;;;;5017031;28;20049;-59
2021/10/07 09:30:00;;;;;;;63.22;7.90;;;14.40;90.40;;;;;;5000684;28;20033;-60
2021/10/07 09:32:31;;;;;;;54.35;7.80;;;14.40;90.40;;;;;;5017061;28;21327;-60
2021/10/07 09:34:58;;;;;;;133.77;14.73;;;14.50;90.40;;;;;;5018534;28;20120;-59
2021/10/07 09:37:36;;;;;;;80.75;8.88;;;14.50;90.50;;;;;;5000507;28;20129;-60
2021/10/07 09:40:11;;;;;;;89.35;10.40;;;14.50;90.60;;;;;;5015162;28;20129;-60
2021/10/07 09:42:37;;;;;;;101.65;11.32;;;14.60;90.50;;;;;;5015657;28;20754;-60
2021/10/07 09:45:08;;;;;;;108.82;12.40;;;14.60;90.50;;;;;;5015767;28;20053;-60
2021/10/07 09:47:36;;;;;;;85.63;9.88;;;14.60;90.70;;;;;;5013316;28;20488;-60
2021/10/07 09:50:10;;;;;;;98.47;11.63;;;14.60;90.50;;;;;;4981300;28;20037;-60
2021/10/07 09:52:36;;;;;;;119.38;12.70;;;14.60;90.60;;;;;;5011099;28;20041;-59
2021/10/07 09:55:10;;;;;;;93.57;10.18;;;14.60;90.70;;;;;;5009897;28;20155;-60
2021/10/07 09:57:53;;;;;;;127.70;11.57;;;14.70;90.50;;;;;;5014455;28;20526;-60
2021/10/07 10:00:19;;;;;;;85.70;10.20;;;14.70;90.40;;;;;;4998185;28;20370;-60
2021/10/07 10:02:45;;;;;;;82.80;9.73;;;14.70;90.30;;;;;;5015570;28;20105;-61
2021/10/07 10:05:12;;;;;;;112.85;12.55;;;14.70;90.20;;;;;;5011780;28;20690;-60
2021/10/07 10:07:37;;;;;;;90.35;10.23;;;14.70;90.10;;;;;;5008283;28;20033;-60
2021/10/07 10:10:04;;;;;;;100.55;13.80;;;14.80;90.10;;;;;;5010893;28;20485;-60
2021/10/07 10:12:29;;;;;;;132.95;13.90;;;14.80;90.10;;;;;;5015737;28;20039;-60
2021/10/07 10:14:55;;;;;;;90.75;9.60;;;14.80;90.20;;;;;;5017539;28;20099;-60
2021/10/07 10:17:21;;;;;;;81.25;9.50;;;14.80;90.10;;;;;;5019808;28;20041;-60
2021/10/07 10:19:47;;;;;;;80.05;9.32;;;14.90;90.10;;;;;;5018231;28;20026;-60
2021/10/07 10:22:13;;;;;;;85.28;11.43;;;14.90;90.10;;;;;;5004441;28;20025;-61
2021/10/07 10:24:38;;;;;;;98.07;9.50;;;14.90;90.00;;;;;;5002040;28;20029;-62
2021/10/07 10:27:04;;;;;;;113.80;13.85;;;14.90;90.10;;;;;;5003334;28;20513;-61
2021/10/07 10:29:33;;;;;;;112.43;12.98;;;15.00;89.60;;;;;;5017206;28;20429;-60
2021/10/07 10:31:59;;;;;;;132.68;13.15;;;15.00;90.00;;;;;;5019880;28;20097;-60
2021/10/07 10:34:24;;;;;;;99.07;12.07;;;15.00;89.80;;;;;;5018709;28;20455;-61
2021/10/07 10:36:57;;;;;;;93.30;11.20;;;15.10;89.80;;;;;;4998901;28;20571;-61
2021/10/07 10:39:30;;;;;;;110.22;13.70;;;15.10;89.60;;;;;;5018333;28;20528;-61
2021/10/07 10:41:59;;;;;;;110.72;13.85;;;15.10;89.50;;;;;;5000671;28;20413;-61
2021/10/07 10:44:28;;;;;;;144.32;13.88;;;15.10;89.50;;;;;;5019603;28;20037;-60
2021/10/07 10:47:24;;;;;;;155.02;15.38;;;15.20;89.60;;;;;;5013920;28;20025;-60
2021/10/07 10:50:00;;;;;;;184.95;17.95;;;15.20;89.60;;;;;;5014116;28;20041;-60
2021/10/07 10:52:33;;;;;;;148.27;17.58;;;15.20;89.30;;;;;;5021035;28;20029;-62
2021/10/07 10:55:00;;;;;;;139.25;15.25;;;15.30;89.00;;;;;;5017997;28;20408;-60
2021/10/07 10:57:35;;;;;;;130.13;15.32;;;15.20;88.60;;;;;;5018382;28;20111;-60
2021/10/07 11:00:26;;;;;;;181.63;18.25;;;15.30;88.50;;;;;;5018093;28;20381;-59
2021/10/07 11:02:54;;;;;;;164.50;18.00;;;15.30;88.30;;;;;;4997727;28;20534;-60
2021/10/07 11:05:28;;;;;;;167.73;18.65;;;15.30;88.10;;;;;;5002449;28;20026;-60
2021/10/07 11:08:09;;;;;;;158.20;16.92;;;15.40;88.20;;;;;;5017579;28;20036;-60
2021/10/07 11:10:45;;;;;;;150.23;16.40;;;15.40;88.10;;;;;;5018156;28;20082;-60
2021/10/07 11:13:19;;;;;;;123.85;14.38;;;15.40;87.90;;;;;;5019629;28;20434;-60
2021/10/07 11:15:56;;;;;;;139.05;14.73;;;15.50;87.70;;;;;;5015197;28;20038;-60
2021/10/07 11:18:22;;;;;;;124.38;15.95;;;15.50;87.70;;;;;;5016921;28;20638;-60
2021/10/07 11:20:55;;;;;;;135.48;14.63;;;15.50;87.60;;;;;;5001099;28;20043;-60
2021/10/07 11:23:21;;;;;;;153.73;16.38;;;15.50;87.20;;;;;;5000161;28;20042;-60
2021/10/07 11:25:54;;;;;;;139.48;13.45;;;15.50;87.10;;;;;;5018505;28;20057;-60
2021/10/07 11:28:26;;;;;;;128.52;15.32;;;15.60;86.90;;;;;;5018100;28;20587;-59
2021/10/07 11:30:56;;;;;;;116.53;14.73;;;15.60;86.90;;;;;;5018179;28;20163;-60
2021/10/07 11:33:24;;;;;;;113.88;13.15;;;15.60;86.70;;;;;;5017883;28;20239;-60
2021/10/07 11:35:57;;;;;;;128.32;15.45;;;15.60;86.30;;;;;;5012690;28;20033;-59
2021/10/07 11:38:22;;;;;;;108.32;13.13;;;15.70;86.30;;;;;;4978784;28;20135;-60
2021/10/07 11:40:53;;;;;;;128.02;14.07;;;15.70;86.20;;;;;;5010096;28;20049;-60
2021/10/07 11:43:26;;;;;;;103.85;13.73;;;15.70;86.10;;;;;;5016010;28;20574;-60
2021/10/07 11:45:53;;;;;;;96.13;12.05;;;15.80;85.80;;;;;;5000557;28;20037;-60
2021/10/07 11:48:19;;;;;;;91.68;12.40;;;15.80;85.40;;;;;;5016118;28;20804;-59
2021/10/07 11:50:47;;;;;;;91.68;10.65;;;15.80;85.20;;;;;;5018273;28;20037;-60
2021/10/07 11:53:14;;;;;;;85.05;11.52;;;15.80;85.10;;;;;;5017634;28;20025;-60
2021/10/07 11:55:45;;;;;;;80.13;11.73;;;15.80;84.90;;;;;;4984937;28;20025;-60
2021/10/07 11:58:11;;;;;;;121.32;12.65;;;15.90;84.80;;;;;;5018993;28;20062;-60
2021/10/07 12:00:47;;;;;;;99.10;11.82;;;15.90;84.60;;;;;;5022121;28;20025;-60
2021/10/07 12:03:15;;;;;;;105.82;11.50;;;16.00;83.90;;;;;;5016112;28;20037;-60
2021/10/07 12:05:41;;;;;;;102.18;11.75;;;16.00;83.80;;;;;;5016104;28;20357;-61
2021/10/07 12:08:10;;;;;;;80.93;10.18;;;16.00;83.60;;;;;;4999037;28;20033;-60
2021/10/07 12:10:45;;;;;;;98.35;11.15;;;16.00;83.30;;;;;;5011201;28;20444;-61
2021/10/07 12:13:16;;;;;;;123.25;12.07;;;16.00;83.20;;;;;;5014833;28;20388;-60
2021/10/07 12:15:53;;;;;;;103.78;12.13;;;16.00;82.20;;;;;;4997702;28;20048;-59
2021/10/07 12:18:18;;;;;;;95.55;9.52;;;16.10;82.20;;;;;;5006831;28;20075;-60
2021/10/07 12:21:04;;;;;;;76.93;11.02;;;16.10;82.00;;;;;;4980099;28;20037;-60
2021/10/07 12:23:30;;;;;;;100.10;13.00;;;16.10;82.40;;;;;;5010253;28;20848;-60
2021/10/07 12:26:03;;;;;;;105.43;10.48;;;16.10;81.80;;;;;;5013875;28;20082;-60
2021/10/07 12:28:28;;;;;;;91.80;10.90;;;16.10;81.50;;;;;;5014867;28;20104;-60
2021/10/07 12:31:04;;;;;;;78.80;9.30;;;16.20;81.50;;;;;;5016208;28;20125;-60
2021/10/07 12:33:31;;;;;;;76.65;8.93;;;16.20;81.60;;;;;;4996519;28;20211;-60
2021/10/07 12:36:07;;;;;;;90.10;10.90;;;16.30;81.20;;;;;;5014917;28;20052;-60
2021/10/07 12:38:47;;;;;;;;;;;16.20;81.40;;;;;;5021314;28;20017;-60
2021/10/07 12:41:13;;;;;;;83.32;10.48;;;16.30;81.30;;;;;;5015051;28;20413;-60